createdAt,value
2023-01-13T00:00:26.051Z,0.00
2023-01-13T00:01:26.287Z,0.00
2023-01-13T00:02:26.562Z,0.00
2023-01-13T00:03:26.767Z,0.00
2023-01-13T00:04:27.065Z,0.00
2023-01-13T00:05:27.195Z,0.00
2023-01-13T00:06:27.428Z,0.00
2023-01-13T00:07:27.686Z,0.00
2023-01-13T00:08:27.912Z,0.00
2023-01-13T00:09:28.141Z,0.00
2023-01-13T00:10:28.374Z,0.00
2023-01-13T00:11:28.596Z,0.00
2023-01-13T00:12:28.845Z,0.00
2023-01-13T00:13:29.003Z,0.00
2023-01-13T00:14:29.730Z,0.00
2023-01-13T00:15:29.400Z,0.00
2023-01-13T00:16:29.631Z,0.00
2023-01-13T00:17:29.887Z,0.00
2023-01-13T00:18:30.116Z,0.00
2023-01-13T00:19:30.337Z,0.00
2023-01-13T00:20:30.570Z,0.00
2023-01-13T00:21:30.792Z,0.00
2023-01-13T00:22:31.032Z,0.00
2023-01-13T00:23:31.269Z,0.00
2023-01-13T00:24:31.492Z,0.00
2023-01-13T00:25:31.712Z,0.00
2023-01-13T00:26:31.947Z,0.00
2023-01-13T00:27:32.194Z,0.00
2023-01-13T00:28:32.414Z,0.00
2023-01-13T00:29:32.641Z,0.00
2023-01-13T00:30:32.871Z,0.00
2023-01-13T00:31:33.134Z,0.00
2023-01-13T00:32:33.385Z,0.00
2023-01-13T00:33:33.600Z,0.00
2023-01-13T00:34:33.844Z,0.00
2023-01-13T00:35:34.060Z,0.00
2023-01-13T00:36:34.290Z,0.00
2023-01-13T00:37:34.548Z,0.00
2023-01-13T00:38:34.771Z,0.00
2023-01-13T00:39:35.000Z,0.00
2023-01-13T00:40:35.229Z,0.00
2023-01-13T00:41:35.448Z,0.00
2023-01-13T00:42:35.705Z,0.00
2023-01-13T00:43:35.933Z,0.00
2023-01-13T00:44:36.162Z,0.00
2023-01-13T00:45:36.406Z,0.00
2023-01-13T00:46:36.691Z,0.00
2023-01-13T00:47:36.857Z,0.00
2023-01-13T00:48:37.065Z,0.00
2023-01-13T00:49:37.296Z,0.00
2023-01-13T00:50:37.526Z,0.00
2023-01-13T00:51:37.767Z,0.00
2023-01-13T00:52:38.014Z,0.00
2023-01-13T00:53:38.251Z,0.00
2023-01-13T00:54:38.481Z,0.00
2023-01-13T00:55:38.713Z,0.00
2023-01-13T00:56:40.793Z,0.00
2023-01-13T00:57:39.225Z,0.00
2023-01-13T00:58:39.456Z,0.00
2023-01-13T00:59:39.690Z,0.00
2023-01-13T01:00:40.003Z,0.00
2023-01-13T01:01:40.347Z,0.00
2023-01-13T01:02:40.366Z,0.00
2023-01-13T01:03:40.475Z,0.00
2023-01-13T01:04:40.694Z,0.00
2023-01-13T01:05:40.932Z,0.00
2023-01-13T01:06:41.163Z,0.00
2023-01-13T01:07:41.402Z,0.00
2023-01-13T01:08:41.631Z,0.00
2023-01-13T01:09:41.856Z,0.00
2023-01-13T01:10:42.085Z,0.00
2023-01-13T01:11:42.311Z,0.00
2023-01-13T01:12:42.539Z,0.00
2023-01-13T01:13:42.777Z,0.00
2023-01-13T01:14:43.008Z,0.00
2023-01-13T01:15:43.377Z,0.00
2023-01-13T01:16:43.437Z,0.00
2023-01-13T01:17:43.692Z,0.00
2023-01-13T01:18:43.921Z,0.00
2023-01-13T01:19:44.130Z,0.00
2023-01-13T01:20:44.360Z,0.00
2023-01-13T01:21:51.568Z,0.00
2023-01-13T01:22:44.764Z,0.00
2023-01-13T01:23:46.880Z,0.00
2023-01-13T01:24:45.220Z,0.00
2023-01-13T01:25:45.441Z,0.00
2023-01-13T01:26:45.661Z,0.00
2023-01-13T01:27:45.899Z,0.00
2023-01-13T01:28:46.127Z,0.00
2023-01-13T01:29:46.338Z,0.00
2023-01-13T01:30:46.561Z,0.00
2023-01-13T01:31:46.942Z,0.00
2023-01-13T01:32:47.077Z,0.00
2023-01-13T01:33:47.308Z,0.00
2023-01-13T01:34:47.534Z,0.00
2023-01-13T01:35:47.764Z,0.00
2023-01-13T01:36:47.985Z,0.00
2023-01-13T01:37:48.240Z,0.00
2023-01-13T01:38:48.468Z,0.00
2023-01-13T01:39:48.673Z,0.00
2023-01-13T01:40:48.912Z,0.00
2023-01-13T01:41:49.116Z,0.00
2023-01-13T01:42:49.358Z,0.00
2023-01-13T01:43:49.615Z,0.00
2023-01-13T01:44:50.698Z,0.00
2023-01-13T01:45:50.108Z,0.00
2023-01-13T01:46:50.407Z,0.00
2023-01-13T01:47:50.539Z,0.00
2023-01-13T01:48:50.755Z,0.00
2023-01-13T01:49:50.982Z,0.00
2023-01-13T01:50:51.208Z,0.00
2023-01-13T01:51:51.452Z,0.00
2023-01-13T01:52:51.679Z,0.00
2023-01-13T01:53:51.896Z,0.00
2023-01-13T01:54:52.127Z,0.00
2023-01-13T01:55:52.348Z,0.00
2023-01-13T01:56:52.573Z,0.00
2023-01-13T01:57:52.810Z,0.00
2023-01-13T01:58:53.046Z,0.00
2023-01-13T01:59:53.250Z,0.00
2023-01-13T02:00:53.576Z,0.00
2023-01-13T02:01:53.885Z,0.00
2023-01-13T02:02:53.903Z,0.00
2023-01-13T02:03:54.123Z,0.00
2023-01-13T02:04:54.346Z,0.00
2023-01-13T02:05:54.583Z,0.00
2023-01-13T02:06:54.799Z,0.00
2023-01-13T02:07:55.047Z,0.00
2023-01-13T02:08:55.252Z,0.00
2023-01-13T02:09:55.488Z,0.00
2023-01-13T02:10:55.711Z,0.00
2023-01-13T02:11:55.953Z,0.00
2023-01-13T02:12:56.176Z,0.00
2023-01-13T02:13:56.403Z,0.00
2023-01-13T02:14:56.672Z,0.00
2023-01-13T02:15:56.882Z,0.00
2023-01-13T02:16:56.993Z,0.00
2023-01-13T02:17:57.240Z,0.00
2023-01-13T02:18:57.424Z,0.00
2023-01-13T02:19:57.656Z,0.00
2023-01-13T02:20:57.878Z,0.00
2023-01-13T02:21:58.079Z,0.00
2023-01-13T02:22:58.314Z,0.00
2023-01-13T02:23:58.550Z,0.00
2023-01-13T02:24:58.812Z,0.00
2023-01-13T02:25:59.036Z,0.00
2023-01-13T02:26:59.211Z,0.00
2023-01-13T02:27:59.409Z,0.00
2023-01-13T02:28:59.620Z,0.00
2023-01-13T02:29:59.920Z,0.00
2023-01-13T02:31:00.035Z,0.00
2023-01-13T02:32:00.255Z,0.00
2023-01-13T02:33:00.493Z,0.00
2023-01-13T02:34:00.716Z,0.00
2023-01-13T02:35:00.941Z,0.00
2023-01-13T02:36:01.188Z,0.00
2023-01-13T02:37:01.422Z,0.00
2023-01-13T02:38:01.676Z,0.00
2023-01-13T02:39:01.899Z,0.00
2023-01-13T02:40:02.118Z,0.00
2023-01-13T02:41:02.366Z,0.00
2023-01-13T02:42:02.598Z,0.00
2023-01-13T02:43:02.869Z,0.00
2023-01-13T02:44:03.080Z,0.00
2023-01-13T02:45:03.321Z,0.00
2023-01-13T02:46:03.618Z,0.00
2023-01-13T02:47:03.736Z,0.00
2023-01-13T02:48:03.987Z,0.00
2023-01-13T02:49:04.215Z,0.00
2023-01-13T02:50:04.449Z,0.00
2023-01-13T02:51:04.691Z,0.00
2023-01-13T02:52:04.889Z,0.00
2023-01-13T02:53:05.157Z,0.00
2023-01-13T02:54:05.376Z,0.00
2023-01-13T02:55:05.598Z,0.00
2023-01-13T02:56:05.818Z,0.00
2023-01-13T02:57:12.996Z,0.00
2023-01-13T02:58:06.329Z,0.00
2023-01-13T02:59:06.534Z,0.00
2023-01-13T03:00:06.747Z,0.00
2023-01-13T03:01:07.051Z,0.00
2023-01-13T03:02:07.625Z,0.00
2023-01-13T03:03:07.361Z,0.00
2023-01-13T03:04:07.538Z,0.00
2023-01-13T03:05:07.733Z,0.00
2023-01-13T03:06:07.929Z,0.00
2023-01-13T03:07:08.125Z,0.00
2023-01-13T03:08:08.357Z,0.00
2023-01-13T03:09:08.557Z,0.00
2023-01-13T03:10:08.771Z,0.00
2023-01-13T03:11:08.948Z,0.00
2023-01-13T03:12:09.154Z,0.00
2023-01-13T03:13:09.361Z,0.00
2023-01-13T03:14:09.611Z,0.00
2023-01-13T03:15:09.834Z,0.00
2023-01-13T03:16:10.116Z,0.00
2023-01-13T03:17:10.187Z,0.00
2023-01-13T03:18:10.411Z,0.00
2023-01-13T03:19:10.608Z,0.00
2023-01-13T03:20:10.819Z,0.00
2023-01-13T03:21:11.011Z,0.00
2023-01-13T03:22:11.229Z,0.00
2023-01-13T03:23:11.449Z,0.00
2023-01-13T03:24:11.668Z,0.00
2023-01-13T03:25:11.858Z,0.00
2023-01-13T03:26:12.090Z,0.00
2023-01-13T03:27:12.285Z,0.00
2023-01-13T03:28:12.499Z,0.00
2023-01-13T03:29:12.702Z,0.00
2023-01-13T03:30:12.907Z,0.00
2023-01-13T03:31:13.104Z,0.00
2023-01-13T03:32:13.313Z,0.00
2023-01-13T03:33:13.516Z,0.00
2023-01-13T03:34:13.724Z,0.00
2023-01-13T03:35:13.915Z,0.00
2023-01-13T03:36:14.170Z,0.00
2023-01-13T03:37:14.380Z,0.00
2023-01-13T03:38:14.589Z,0.00
2023-01-13T03:39:14.801Z,0.00
2023-01-13T03:40:15.028Z,0.00
2023-01-13T03:41:16.186Z,0.00
2023-01-13T03:42:15.507Z,0.00
2023-01-13T03:43:22.666Z,0.00
2023-01-13T03:44:15.944Z,0.00
2023-01-13T03:45:16.145Z,0.00
2023-01-13T03:46:16.391Z,0.00
2023-01-13T03:47:16.599Z,0.00
2023-01-13T03:48:16.814Z,0.00
2023-01-13T03:49:16.997Z,0.00
2023-01-13T03:50:17.215Z,0.00
2023-01-13T03:51:17.425Z,0.00
2023-01-13T03:52:17.631Z,0.00
2023-01-13T03:53:17.828Z,0.00
2023-01-13T03:54:18.082Z,0.00
2023-01-13T03:55:18.334Z,0.00
2023-01-13T03:56:18.480Z,0.00
2023-01-13T03:57:18.672Z,0.00
2023-01-13T03:58:18.953Z,0.00
2023-01-13T03:59:19.041Z,0.00
2023-01-13T04:00:19.271Z,0.00
2023-01-13T04:01:19.578Z,0.00
2023-01-13T04:02:19.730Z,0.00
2023-01-13T04:03:19.921Z,0.00
2023-01-13T04:04:20.132Z,0.00
2023-01-13T04:05:20.345Z,0.00
2023-01-13T04:06:20.559Z,0.00
2023-01-13T04:07:20.749Z,0.00
2023-01-13T04:08:20.949Z,0.00
2023-01-13T04:09:21.139Z,0.00
2023-01-13T04:10:21.374Z,0.00
2023-01-13T04:11:21.579Z,0.00
2023-01-13T04:12:21.830Z,0.00
2023-01-13T04:13:22.037Z,0.00
2023-01-13T04:14:22.253Z,0.00
2023-01-13T04:15:22.483Z,0.00
2023-01-13T04:16:22.690Z,0.00
2023-01-13T04:17:22.875Z,0.00
2023-01-13T04:18:23.078Z,0.00
2023-01-13T04:19:23.272Z,0.00
2023-01-13T04:20:23.507Z,0.00
2023-01-13T04:21:23.716Z,0.00
2023-01-13T04:22:23.938Z,0.00
2023-01-13T04:23:24.138Z,0.00
2023-01-13T04:24:24.363Z,0.00
2023-01-13T04:25:24.560Z,0.00
2023-01-13T04:26:24.780Z,0.00
2023-01-13T04:27:24.980Z,0.00
2023-01-13T04:28:25.169Z,0.00
2023-01-13T04:29:25.367Z,0.00
2023-01-13T04:30:25.577Z,0.00
2023-01-13T04:31:25.834Z,0.00
2023-01-13T04:32:26.058Z,0.00
2023-01-13T04:33:26.263Z,0.00
2023-01-13T04:34:28.396Z,0.00
2023-01-13T04:35:26.650Z,0.00
2023-01-13T04:36:27.013Z,0.00
2023-01-13T04:37:27.091Z,0.00
2023-01-13T04:38:27.302Z,0.00
2023-01-13T04:39:27.492Z,0.00
2023-01-13T04:40:27.715Z,0.00
2023-01-13T04:41:27.894Z,0.00
2023-01-13T04:42:28.109Z,0.00
2023-01-13T04:43:28.312Z,0.00
2023-01-13T04:44:28.532Z,0.00
2023-01-13T04:45:28.732Z,0.00
2023-01-13T04:46:29.031Z,0.00
2023-01-13T04:47:29.122Z,0.00
2023-01-13T04:48:29.323Z,0.00
2023-01-13T04:49:29.523Z,0.00
2023-01-13T04:50:29.759Z,0.00
2023-01-13T04:51:31.007Z,0.00
2023-01-13T04:52:30.200Z,0.00
2023-01-13T04:53:30.421Z,0.00
2023-01-13T04:54:30.650Z,0.00
2023-01-13T04:55:30.856Z,0.00
2023-01-13T04:56:31.061Z,0.00
2023-01-13T04:57:31.259Z,0.00
2023-01-13T04:58:31.469Z,0.00
2023-01-13T04:59:33.321Z,0.00
2023-01-13T05:00:31.943Z,0.00
2023-01-13T05:01:32.201Z,0.00
2023-01-13T05:02:32.351Z,0.00
2023-01-13T05:03:32.535Z,0.00
2023-01-13T05:04:32.774Z,0.00
2023-01-13T05:05:32.998Z,0.00
2023-01-13T05:06:33.215Z,0.00
2023-01-13T05:07:33.399Z,0.00
2023-01-13T05:08:33.634Z,0.00
2023-01-13T05:09:33.815Z,0.00
2023-01-13T05:10:34.051Z,0.00
2023-01-13T05:11:34.249Z,0.00
2023-01-13T05:12:34.457Z,0.00
2023-01-13T05:13:35.603Z,0.00
2023-01-13T05:14:34.930Z,0.00
2023-01-13T05:15:35.238Z,0.00
2023-01-13T05:16:35.335Z,0.00
2023-01-13T05:17:35.531Z,0.00
2023-01-13T05:18:35.726Z,0.00
2023-01-13T05:19:35.919Z,0.00
2023-01-13T05:20:36.141Z,0.00
2023-01-13T05:21:36.301Z,0.00
2023-01-13T05:22:36.515Z,0.00
2023-01-13T05:23:36.716Z,0.00
2023-01-13T05:24:36.935Z,0.00
2023-01-13T05:25:37.141Z,0.00
2023-01-13T05:26:37.359Z,0.00
2023-01-13T05:27:37.555Z,0.00
2023-01-13T05:28:37.754Z,0.00
2023-01-13T05:29:37.960Z,0.00
2023-01-13T05:30:38.171Z,0.00
2023-01-13T05:31:38.369Z,0.00
2023-01-13T05:32:38.588Z,0.00
2023-01-13T05:33:38.800Z,0.00
2023-01-13T05:34:38.997Z,0.00
2023-01-13T05:35:39.225Z,0.00
2023-01-13T05:36:39.424Z,0.00
2023-01-13T05:37:39.620Z,0.00
2023-01-13T05:38:39.888Z,0.00
2023-01-13T05:39:40.085Z,0.00
2023-01-13T05:40:40.358Z,0.00
2023-01-13T05:41:40.449Z,0.00
2023-01-13T05:42:40.664Z,0.00
2023-01-13T05:43:40.859Z,0.00
2023-01-13T05:44:41.082Z,0.00
2023-01-13T05:45:41.295Z,0.00
2023-01-13T05:46:41.553Z,0.00
2023-01-13T05:47:41.668Z,0.00
2023-01-13T05:48:41.897Z,0.00
2023-01-13T05:49:42.315Z,0.00
2023-01-13T05:50:42.331Z,0.00
2023-01-13T05:51:42.536Z,0.00
2023-01-13T05:52:42.758Z,0.00
2023-01-13T05:53:42.996Z,0.00
2023-01-13T05:54:43.217Z,0.00
2023-01-13T05:55:43.437Z,0.00
2023-01-13T05:56:43.648Z,0.00
2023-01-13T05:57:43.837Z,0.00
2023-01-13T05:58:44.053Z,0.00
2023-01-13T05:59:44.251Z,0.00
2023-01-13T06:00:44.478Z,0.00
2023-01-13T06:01:44.690Z,0.00
2023-01-13T06:02:44.903Z,0.00
2023-01-13T06:03:45.102Z,0.00
2023-01-13T06:04:45.348Z,0.00
2023-01-13T06:05:45.587Z,0.00
2023-01-13T06:06:45.793Z,0.00
2023-01-13T06:07:45.993Z,0.00
2023-01-13T06:08:47.162Z,0.00
2023-01-13T06:09:46.445Z,0.00
2023-01-13T06:10:46.669Z,0.00
2023-01-13T06:11:46.883Z,0.00
2023-01-13T06:12:47.085Z,0.00
2023-01-13T06:13:47.318Z,0.00
2023-01-13T06:14:47.537Z,0.00
2023-01-13T06:15:47.793Z,0.00
2023-01-13T06:16:47.973Z,0.00
2023-01-13T06:17:48.213Z,0.00
2023-01-13T06:18:48.424Z,0.00
2023-01-13T06:19:48.658Z,0.00
2023-01-13T06:20:48.873Z,0.00
2023-01-13T06:21:49.107Z,0.00
2023-01-13T06:22:49.322Z,0.00
2023-01-13T06:23:49.493Z,0.00
2023-01-13T06:24:49.707Z,0.00
2023-01-13T06:25:49.930Z,0.00
2023-01-13T06:26:50.130Z,0.00
2023-01-13T06:27:50.332Z,0.00
2023-01-13T06:28:50.525Z,0.00
2023-01-13T06:29:50.741Z,0.00
2023-01-13T06:30:50.961Z,0.00
2023-01-13T06:31:51.214Z,0.00
2023-01-13T06:32:51.410Z,0.00
2023-01-13T06:33:51.615Z,0.00
2023-01-13T06:34:51.799Z,0.00
2023-01-13T06:35:52.009Z,0.00
2023-01-13T06:36:52.252Z,0.00
2023-01-13T06:37:52.426Z,0.00
2023-01-13T06:38:52.602Z,0.00
2023-01-13T06:39:52.786Z,0.00
2023-01-13T06:40:53.008Z,0.00
2023-01-13T06:41:53.231Z,0.00
2023-01-13T06:42:53.412Z,0.00
2023-01-13T06:43:53.628Z,0.00
2023-01-13T06:44:53.798Z,0.00
2023-01-13T06:45:54.029Z,0.00
2023-01-13T06:46:54.300Z,0.00
2023-01-13T06:47:54.496Z,0.00
2023-01-13T06:48:54.680Z,0.00
2023-01-13T06:49:54.892Z,0.00
2023-01-13T06:50:55.101Z,0.00
2023-01-13T06:51:55.306Z,0.00
2023-01-13T06:52:55.496Z,0.00
2023-01-13T06:53:55.713Z,0.00
2023-01-13T06:54:55.905Z,0.00
2023-01-13T06:55:56.117Z,0.00
2023-01-13T06:56:56.322Z,0.00
2023-01-13T06:57:56.537Z,0.00
2023-01-13T06:58:56.727Z,0.00
2023-01-13T06:59:56.926Z,0.00
2023-01-13T07:00:57.257Z,0.00
2023-01-13T07:01:57.604Z,0.00
2023-01-13T07:02:57.603Z,0.00
2023-01-13T07:03:57.810Z,0.00
2023-01-13T07:04:58.013Z,0.00
2023-01-13T07:05:58.257Z,0.00
2023-01-13T07:06:58.427Z,0.00
2023-01-13T07:07:58.634Z,0.00
2023-01-13T07:08:58.836Z,0.00
2023-01-13T07:09:59.019Z,0.00
2023-01-13T07:10:59.251Z,0.00
2023-01-13T07:11:59.445Z,0.00
2023-01-13T07:12:59.661Z,0.00
2023-01-13T07:13:59.916Z,0.00
2023-01-13T07:15:00.000Z,0.00
2023-01-13T07:16:00.338Z,0.00
2023-01-13T07:17:00.484Z,0.00
2023-01-13T07:18:00.668Z,0.00
2023-01-13T07:19:00.877Z,5.62
2023-01-13T07:20:01.099Z,5.62
2023-01-13T07:21:01.346Z,5.62
2023-01-13T07:22:58.848Z,11.25
2023-01-13T07:23:59.009Z,11.25
2023-01-13T07:24:59.191Z,11.25
2023-01-13T07:25:59.374Z,11.25
2023-01-13T07:26:59.556Z,11.25
2023-01-13T07:27:59.711Z,5.62
2023-01-13T07:28:59.902Z,5.62
2023-01-13T07:30:00.065Z,5.62
2023-01-13T07:31:00.233Z,5.62
2023-01-13T07:32:00.469Z,5.62
2023-01-13T07:33:00.555Z,0.00
2023-01-13T07:34:00.775Z,5.62
2023-01-13T07:35:00.954Z,5.62
2023-01-13T07:36:01.125Z,5.62
2023-01-13T07:37:01.313Z,5.62
2023-01-13T07:38:01.463Z,5.62
2023-01-13T07:39:01.645Z,5.62
2023-01-13T07:40:01.809Z,5.62
2023-01-13T07:41:01.993Z,5.62
2023-01-13T07:42:02.170Z,11.25
2023-01-13T07:43:02.343Z,11.25
2023-01-13T07:44:02.506Z,11.25
2023-01-13T07:45:02.693Z,11.25
2023-01-13T07:46:02.889Z,16.88
2023-01-13T07:47:02.980Z,16.88
2023-01-13T07:48:03.148Z,16.88
2023-01-13T07:49:03.325Z,22.50
2023-01-13T07:50:03.486Z,22.50
2023-01-13T07:51:03.658Z,28.12
2023-01-13T07:52:03.840Z,33.75
2023-01-13T07:53:03.992Z,33.75
2023-01-13T07:54:04.141Z,33.75
2023-01-13T07:55:04.310Z,33.75
2023-01-13T07:56:04.501Z,33.75
2023-01-13T07:57:04.663Z,33.75
2023-01-13T07:58:04.826Z,33.75
2023-01-13T07:59:05.001Z,33.75
2023-01-13T08:00:05.173Z,33.75
2023-01-13T08:01:05.446Z,33.75
2023-01-13T08:02:05.664Z,39.38
2023-01-13T08:03:05.689Z,45.00
2023-01-13T08:04:05.839Z,50.62
2023-01-13T08:05:06.019Z,56.25
2023-01-13T08:06:06.211Z,56.25
2023-01-13T08:07:06.364Z,56.25
2023-01-13T08:08:06.525Z,61.88
2023-01-13T08:09:06.703Z,67.50
2023-01-13T08:10:06.853Z,73.12
2023-01-13T08:11:07.030Z,78.75
2023-01-13T08:12:07.210Z,78.75
2023-01-13T08:13:07.367Z,78.75
2023-01-13T08:14:07.546Z,78.75
2023-01-13T08:15:07.732Z,84.38
2023-01-13T08:16:07.895Z,78.75
2023-01-13T08:17:08.082Z,73.12
2023-01-13T08:18:08.245Z,78.75
2023-01-13T08:19:08.402Z,78.75
2023-01-13T08:20:08.564Z,73.12
2023-01-13T08:21:08.734Z,61.88
2023-01-13T08:22:08.912Z,50.62
2023-01-13T08:23:09.073Z,45.00
2023-01-13T08:24:09.253Z,39.38
2023-01-13T08:25:09.420Z,39.38
2023-01-13T08:26:09.582Z,45.00
2023-01-13T08:27:09.760Z,50.62
2023-01-13T08:28:09.938Z,56.25
2023-01-13T08:29:10.088Z,61.88
2023-01-13T08:30:10.265Z,61.88
2023-01-13T08:31:10.492Z,67.50
2023-01-13T08:32:10.571Z,78.75
2023-01-13T08:33:10.746Z,84.38
2023-01-13T08:34:10.898Z,90.00
2023-01-13T08:35:11.078Z,90.00
2023-01-13T08:36:11.230Z,90.00
2023-01-13T08:37:11.422Z,90.00
2023-01-13T08:38:11.605Z,106.88
2023-01-13T08:39:11.764Z,123.75
2023-01-13T08:40:11.924Z,135.00
2023-01-13T08:41:12.114Z,140.62
2023-01-13T08:42:12.299Z,135.00
2023-01-13T08:43:12.464Z,123.75
2023-01-13T08:44:12.637Z,118.12
2023-01-13T08:45:12.805Z,118.12
2023-01-13T08:46:13.118Z,123.75
2023-01-13T08:47:13.186Z,123.75
2023-01-13T08:48:13.344Z,118.12
2023-01-13T08:49:13.486Z,101.25
2023-01-13T08:50:13.638Z,84.38
2023-01-13T08:51:13.802Z,78.75
2023-01-13T08:52:13.961Z,73.12
2023-01-13T08:53:14.130Z,67.50
2023-01-13T08:54:14.292Z,73.12
2023-01-13T08:55:14.460Z,73.12
2023-01-13T08:56:14.648Z,73.12
2023-01-13T08:57:14.829Z,67.50
2023-01-13T08:58:16.185Z,61.88
2023-01-13T08:59:15.080Z,61.88
2023-01-13T09:00:15.238Z,61.88
2023-01-13T09:01:15.522Z,56.25
2023-01-13T09:02:15.759Z,56.25
2023-01-13T09:03:15.677Z,50.62
2023-01-13T09:04:15.903Z,45.00
2023-01-13T09:05:17.736Z,39.38
2023-01-13T09:06:16.309Z,39.38
2023-01-13T09:07:16.480Z,33.75
2023-01-13T09:08:16.643Z,33.75
2023-01-13T09:09:16.826Z,33.75
2023-01-13T09:10:16.990Z,22.50
2023-01-13T09:11:17.151Z,22.50
2023-01-13T09:12:17.327Z,28.12
2023-01-13T09:13:17.502Z,28.12
2023-01-13T09:14:17.688Z,28.12
2023-01-13T09:15:17.873Z,28.12
2023-01-13T09:16:18.071Z,33.75
2023-01-13T09:17:18.242Z,33.75
2023-01-13T09:18:18.394Z,39.38
2023-01-13T09:19:18.586Z,45.00
2023-01-13T09:20:18.746Z,50.62
2023-01-13T09:21:18.937Z,56.25
2023-01-13T09:22:19.145Z,73.12
2023-01-13T09:23:19.313Z,90.00
2023-01-13T09:24:19.484Z,106.88
2023-01-13T09:25:19.641Z,129.38
2023-01-13T09:26:19.801Z,146.25
2023-01-13T09:27:19.975Z,140.62
2023-01-13T09:28:20.126Z,123.75
2023-01-13T09:29:20.287Z,106.88
2023-01-13T09:30:20.452Z,101.25
2023-01-13T09:31:20.751Z,123.75
2023-01-13T09:32:20.796Z,163.12
2023-01-13T09:33:20.968Z,202.50
2023-01-13T09:34:21.134Z,253.12
2023-01-13T09:35:21.307Z,500.62
2023-01-13T09:36:21.451Z,1220.62
2023-01-13T09:37:21.644Z,1338.75
2023-01-13T09:38:21.793Z,663.75
2023-01-13T09:39:21.968Z,1012.50
2023-01-13T09:40:22.140Z,444.38
2023-01-13T09:41:22.297Z,320.62
2023-01-13T09:42:22.430Z,247.50
2023-01-13T09:43:22.585Z,225.00
2023-01-13T09:44:22.733Z,202.50
2023-01-13T09:45:22.886Z,202.50
2023-01-13T09:46:23.042Z,196.88
2023-01-13T09:47:23.193Z,185.62
2023-01-13T09:48:23.354Z,202.50
2023-01-13T09:49:23.496Z,196.88
2023-01-13T09:50:23.657Z,185.62
2023-01-13T09:51:23.872Z,174.38
2023-01-13T09:52:26.683Z,174.38
2023-01-13T09:53:24.098Z,168.75
2023-01-13T09:54:24.282Z,185.62
2023-01-13T09:55:24.435Z,444.38
2023-01-13T09:56:24.585Z,478.12
2023-01-13T09:57:24.756Z,500.62
2023-01-13T09:58:24.954Z,1220.62
2023-01-13T09:59:25.112Z,551.25
2023-01-13T10:00:25.271Z,1153.12
2023-01-13T10:01:25.458Z,202.50
2023-01-13T10:02:25.620Z,180.00
2023-01-13T10:03:25.789Z,208.12
2023-01-13T10:04:25.943Z,185.62
2023-01-13T10:05:26.063Z,270.00
2023-01-13T10:06:26.231Z,213.75
2023-01-13T10:07:27.387Z,225.00
2023-01-13T10:08:26.538Z,337.50
2023-01-13T10:09:26.686Z,236.25
2023-01-13T10:10:26.844Z,225.00
2023-01-13T10:11:27.010Z,230.62
2023-01-13T10:12:27.185Z,360.00
2023-01-13T10:13:27.359Z,320.62
2023-01-13T10:14:27.503Z,258.75
2023-01-13T10:15:27.667Z,303.75
2023-01-13T10:16:27.989Z,793.12
2023-01-13T10:17:28.031Z,815.62
2023-01-13T10:18:28.186Z,990.00
2023-01-13T10:19:28.336Z,1220.62
2023-01-13T10:20:28.540Z,720.00
2023-01-13T10:21:28.685Z,405.00
2023-01-13T10:22:28.881Z,438.75
2023-01-13T10:23:29.010Z,601.88
2023-01-13T10:24:29.173Z,607.50
2023-01-13T10:25:29.353Z,382.50
2023-01-13T10:26:29.500Z,320.62
2023-01-13T10:27:29.648Z,275.62
2023-01-13T10:28:29.793Z,236.25
2023-01-13T10:29:29.937Z,213.75
2023-01-13T10:30:30.108Z,219.38
2023-01-13T10:31:30.296Z,241.88
2023-01-13T10:32:30.474Z,264.38
2023-01-13T10:33:30.645Z,275.62
2023-01-13T10:34:30.815Z,264.38
2023-01-13T10:35:30.961Z,236.25
2023-01-13T10:36:31.133Z,219.38
2023-01-13T10:37:31.327Z,230.62
2023-01-13T10:38:31.516Z,258.75
2023-01-13T10:39:31.653Z,247.50
2023-01-13T10:40:31.850Z,225.00
2023-01-13T10:41:31.999Z,219.38
2023-01-13T10:42:32.173Z,230.62
2023-01-13T10:43:32.316Z,230.62
2023-01-13T10:44:32.484Z,236.25
2023-01-13T10:45:32.630Z,264.38
2023-01-13T10:46:32.830Z,551.25
2023-01-13T10:47:32.994Z,416.25
2023-01-13T10:48:33.175Z,270.00
2023-01-13T10:49:33.323Z,270.00
2023-01-13T10:50:33.527Z,258.75
2023-01-13T10:51:33.673Z,236.25
2023-01-13T10:52:34.089Z,219.38
2023-01-13T10:53:33.973Z,202.50
2023-01-13T10:54:34.138Z,202.50
2023-01-13T10:55:34.296Z,230.62
2023-01-13T10:56:34.470Z,281.25
2023-01-13T10:57:34.670Z,652.50
2023-01-13T10:58:34.823Z,461.25
2023-01-13T10:59:34.971Z,421.88
2023-01-13T11:00:35.127Z,382.50
2023-01-13T11:01:35.339Z,309.38
2023-01-13T11:02:35.515Z,275.62
2023-01-13T11:03:35.639Z,286.88
2023-01-13T11:04:35.823Z,309.38
2023-01-13T11:05:35.961Z,337.50
2023-01-13T11:06:36.121Z,376.88
2023-01-13T11:07:36.340Z,416.25
2023-01-13T11:08:36.397Z,804.38
2023-01-13T11:09:36.544Z,466.88
2023-01-13T11:10:36.699Z,534.38
2023-01-13T11:11:36.849Z,630.00
2023-01-13T11:12:37.015Z,945.00
2023-01-13T11:13:37.169Z,1372.50
2023-01-13T11:14:37.318Z,1141.88
2023-01-13T11:15:37.453Z,1293.75
2023-01-13T11:16:40.726Z,1181.25
2023-01-13T11:17:38.713Z,1158.75
2023-01-13T11:18:37.850Z,1181.25
2023-01-13T11:19:38.117Z,1203.75
2023-01-13T11:20:38.133Z,1215.00
2023-01-13T11:21:38.239Z,1254.38
2023-01-13T11:22:38.365Z,1293.75
2023-01-13T11:23:38.482Z,1276.88
2023-01-13T11:24:38.621Z,1237.50
2023-01-13T11:25:38.714Z,1192.50
2023-01-13T11:26:38.838Z,1175.62
2023-01-13T11:27:38.936Z,1203.75
2023-01-13T11:28:39.095Z,1260.00
2023-01-13T11:29:39.105Z,1305.00
2023-01-13T11:30:39.209Z,1299.38
2023-01-13T11:31:39.385Z,1276.88
2023-01-13T11:32:39.393Z,1293.75
2023-01-13T11:33:39.516Z,1288.12
2023-01-13T11:34:39.621Z,1276.88
2023-01-13T11:35:39.802Z,1254.38
2023-01-13T11:36:39.813Z,1254.38
2023-01-13T11:37:39.901Z,1260.00
2023-01-13T11:38:40.019Z,1260.00
2023-01-13T11:39:40.113Z,1282.50
2023-01-13T11:40:40.213Z,1265.62
2023-01-13T11:41:40.303Z,1305.00
2023-01-13T11:42:40.384Z,1141.88
2023-01-13T11:43:40.538Z,1254.38
2023-01-13T11:44:40.597Z,1254.38
2023-01-13T11:45:40.714Z,1282.50
2023-01-13T11:46:40.903Z,1282.50
2023-01-13T11:47:40.889Z,1113.75
2023-01-13T11:48:41.009Z,1254.38
2023-01-13T11:49:41.089Z,1248.75
2023-01-13T11:50:41.177Z,1215.00
2023-01-13T11:51:41.267Z,1260.00
2023-01-13T11:52:41.433Z,1321.88
2023-01-13T11:53:41.429Z,1271.25
2023-01-13T11:54:41.565Z,1338.75
2023-01-13T11:55:41.611Z,1400.62
2023-01-13T11:56:41.719Z,1389.38
2023-01-13T11:57:41.802Z,1400.62
2023-01-13T11:58:50.198Z,1260.00
2023-01-13T11:59:42.953Z,1276.88
2023-01-13T12:00:42.052Z,1276.88
2023-01-13T12:01:42.186Z,1293.75
2023-01-13T12:02:42.190Z,1226.25
2023-01-13T12:03:42.310Z,1265.62
2023-01-13T12:04:42.405Z,1130.62
2023-01-13T12:05:42.556Z,1293.75
2023-01-13T12:06:43.189Z,1276.88
2023-01-13T12:07:42.635Z,1226.25
2023-01-13T12:08:42.789Z,1378.12
2023-01-13T12:09:42.747Z,1321.88
2023-01-13T12:10:42.849Z,1299.38
2023-01-13T12:11:42.938Z,978.75
2023-01-13T12:12:43.044Z,1321.88
2023-01-13T12:13:43.141Z,1265.62
2023-01-13T12:14:43.260Z,1237.50
2023-01-13T12:15:43.344Z,1215.00
2023-01-13T12:16:43.501Z,376.88
2023-01-13T12:17:43.593Z,1220.62
2023-01-13T12:18:43.626Z,1237.50
2023-01-13T12:19:43.727Z,1203.75
2023-01-13T12:20:43.928Z,1170.00
2023-01-13T12:21:43.872Z,1147.50
2023-01-13T12:22:43.967Z,1113.75
2023-01-13T12:23:44.083Z,1136.25
2023-01-13T12:24:44.180Z,1119.38
2023-01-13T12:25:44.262Z,1091.25
2023-01-13T12:26:44.363Z,1108.12
2023-01-13T12:27:47.159Z,1108.12
2023-01-13T12:28:44.566Z,1085.62
2023-01-13T12:29:44.626Z,585.00
2023-01-13T12:30:44.603Z,1063.12
2023-01-13T12:31:44.960Z,1051.88
2023-01-13T12:32:44.758Z,1063.12
2023-01-13T12:33:44.880Z,956.25
2023-01-13T12:34:44.980Z,1085.62
2023-01-13T12:35:45.054Z,1108.12
2023-01-13T12:36:45.406Z,1102.50
2023-01-13T12:37:45.249Z,1085.62
2023-01-13T12:38:45.358Z,438.75
2023-01-13T12:39:45.475Z,1108.12
2023-01-13T12:40:45.564Z,781.88
2023-01-13T12:41:45.653Z,1063.12
2023-01-13T12:42:45.758Z,1029.38
2023-01-13T12:43:45.879Z,1012.50
2023-01-13T12:44:45.969Z,1029.38
2023-01-13T12:45:46.090Z,1029.38
2023-01-13T12:46:46.191Z,1029.38
2023-01-13T12:47:46.297Z,1035.00
2023-01-13T12:48:46.431Z,1012.50
2023-01-13T12:49:46.525Z,472.50
2023-01-13T12:50:46.711Z,922.50
2023-01-13T12:51:46.694Z,939.38
2023-01-13T12:52:46.965Z,928.12
2023-01-13T12:53:46.846Z,939.38
2023-01-13T12:54:46.956Z,961.88
2023-01-13T12:55:47.073Z,720.00
2023-01-13T12:56:47.180Z,641.25
2023-01-13T12:57:47.288Z,421.88
2023-01-13T12:58:47.439Z,444.38
2023-01-13T12:59:47.539Z,528.75